Terminal Aerodrome Forecast
Issued by NWS

Home | Current Version | Previous Version | Graphics & Text | Print | Product List | Glossary On
Versions: 1 2 3 4 5 6 7 8 9 10 11 12 13 14 15 16
000
FTUS43 KBIS 150400 AAB
TAFJMS
TAF AMD
KJMS 150420Z 1504/1524 17023G33KT P6SM FEW250 WS015/18050KT
     FM151500 17027G37KT P6SM BKN250=

USA.gov is the U.S. government's official web portal to all federal, state and local government web resources and services.